Saint Nazianz, Wisconsin
Current Conditions -  °F | °C
As of 5:56 AM on Sunday 21 Dec 2014 (Local Time) from KMTW Reporting Station
Overcast Overcast  
Wind Chill: 25°   Ceiling: 3800
Heat Index: 32°   Visibility: 7mi
Dew Point: 29°   Wind: 8mph
Humidity: 88%   Direction: 190°S
Pressure: 30.18"   Gusts: NA
Location:  44.01°N, 87.92°W
Report Text: KMTW 211156Z AUTO 19007KT 7SM OVC038 00/M02 A3018 RMK AO2 SLP243 T00001017 10000 21011 55013 FZRANO
Loading
Personal Weather Stations






























Interactive Weather Map New forecast layout! Learn more

10-Day Weather Forecast

Advertisements
Track Severe Weather on mobile